sensor_id;sensor_type;location;lat;lon;timestamp;pressure;altitude;pressure_sealevel;temperature;humidity
56600;BME280;51832;48.152;11.530;2023-03-01T00:02:53;96006.22;;;5.07;56.30
56600;BME280;51832;48.152;11.530;2023-03-01T00:07:54;95993.88;;;5.23;55.90
56600;BME280;51832;48.152;11.530;2023-03-01T00:12:54;95992.94;;;5.39;55.60
56600;BME280;51832;48.152;11.530;2023-03-01T00:17:56;95999.88;;;5.09;56.59
56600;BME280;51832;48.152;11.530;2023-03-01T00:22:57;95990.13;;;5.03;56.18
56600;BME280;51832;48.152;11.530;2023-03-01T00:27:57;95999.75;;;5.25;55.99
56600;BME280;51832;48.152;11.530;2023-03-01T00:32:58;95991.81;;;5.19;56.09
56600;BME280;51832;48.152;11.530;2023-03-01T00:37:58;95975.44;;;5.25;55.00
56600;BME280;51832;48.152;11.530;2023-03-01T00:42:59;95984.94;;;5.03;55.80
56600;BME280;51832;48.152;11.530;2023-03-01T00:47:59;95984.31;;;5.39;55.02
56600;BME280;51832;48.152;11.530;2023-03-01T00:52:59;95974.03;;;5.37;55.20
56600;BME280;51832;48.152;11.530;2023-03-01T00:58:00;95971.41;;;4.99;56.30
56600;BME280;51832;48.152;11.530;2023-03-01T01:03:00;95958.47;;;5.29;54.65
56600;BME280;51832;48.152;11.530;2023-03-01T01:08:01;95953.00;;;5.01;56.01
56600;BME280;51832;48.152;11.530;2023-03-01T01:13:01;95945.81;;;5.03;55.59
56600;BME280;51832;48.152;11.530;2023-03-01T01:18:02;95946.66;;;5.33;54.86
56600;BME280;51832;48.152;11.530;2023-03-01T01:23:05;95924.63;;;5.35;54.96
56600;BME280;51832;48.152;11.530;2023-03-01T01:28:05;95931.16;;;5.54;54.76
56600;BME280;51832;48.152;11.530;2023-03-01T01:33:06;95924.34;;;4.93;56.10
56600;BME280;51832;48.152;11.530;2023-03-01T01:38:06;95913.16;;;5.07;55.46
56600;BME280;51832;48.152;11.530;2023-03-01T01:43:16;95919.94;;;4.93;56.45
56600;BME280;51832;48.152;11.530;2023-03-01T01:48:21;95915.97;;;5.06;55.54
56600;BME280;51832;48.152;11.530;2023-03-01T01:53:22;95907.28;;;4.90;56.20
56600;BME280;51832;48.152;11.530;2023-03-01T01:58:25;95905.28;;;4.92;56.39
56600;BME280;51832;48.152;11.530;2023-03-01T02:03:31;95903.66;;;5.14;56.14
56600;BME280;51832;48.152;11.530;2023-03-01T02:08:36;95903.22;;;4.65;56.78
56600;BME280;51832;48.152;11.530;2023-03-01T02:13:37;95896.09;;;4.36;58.62
56600;BME280;51832;48.152;11.530;2023-03-01T02:18:39;95889.75;;;4.31;58.38
56600;BME280;51832;48.152;11.530;2023-03-01T02:23:40;95894.88;;;4.70;57.55
56600;BME280;51832;48.152;11.530;2023-03-01T02:28:42;95883.97;;;4.89;56.38
56600;BME280;51832;48.152;11.530;2023-03-01T02:33:43;95885.59;;;4.67;56.98
56600;BME280;51832;48.152;11.530;2023-03-01T02:38:47;95884.97;;;4.65;56.10
56600;BME280;51832;48.152;11.530;2023-03-01T02:43:48;95890.81;;;4.44;57.64
56600;BME280;51832;48.152;11.530;2023-03-01T02:48:52;95875.59;;;4.56;57.02
56600;BME280;51832;48.152;11.530;2023-03-01T02:53:59;95877.13;;;4.65;57.13
56600;BME280;51832;48.152;11.530;2023-03-01T02:59:06;95873.75;;;4.64;57.00
56600;BME280;51832;48.152;11.530;2023-03-01T03:04:09;95874.53;;;4.65;57.21
56600;BME280;51832;48.152;11.530;2023-03-01T03:09:10;95879.31;;;4.61;57.21
56600;BME280;51832;48.152;11.530;2023-03-01T03:14:12;95875.03;;;4.15;57.55
56600;BME280;51832;48.152;11.530;2023-03-01T03:19:13;95878.59;;;4.68;56.39
56600;BME280;51832;48.152;11.530;2023-03-01T03:24:14;95872.81;;;4.57;55.99
56600;BME280;51832;48.152;11.530;2023-03-01T03:29:14;95878.38;;;4.77;55.13
56600;BME280;51832;48.152;11.530;2023-03-01T03:34:14;95865.44;;;4.84;54.42
56600;BME280;51832;48.152;11.530;2023-03-01T03:39:18;95867.13;;;4.77;54.99
56600;BME280;51832;48.152;11.530;2023-03-01T03:44:18;95859.59;;;4.82;54.16
56600;BME280;51832;48.152;11.530;2023-03-01T03:49:19;95872.31;;;4.62;54.94
56600;BME280;51832;48.152;11.530;2023-03-01T03:54:19;95855.72;;;4.32;55.73
56600;BME280;51832;48.152;11.530;2023-03-01T03:59:20;95849.56;;;4.02;56.38
56600;BME280;51832;48.152;11.530;2023-03-01T04:04:21;95847.97;;;4.47;55.26
56600;BME280;51832;48.152;11.530;2023-03-01T04:09:22;95850.34;;;4.56;54.62
56600;BME280;51832;48.152;11.530;2023-03-01T04:14:22;95832.06;;;3.88;57.42
56600;BME280;51832;48.152;11.530;2023-03-01T04:19:22;95841.19;;;3.84;57.63
56600;BME280;51832;48.152;11.530;2023-03-01T04:24:23;95838.34;;;4.02;56.98
56600;BME280;51832;48.152;11.530;2023-03-01T04:29:23;95852.16;;;4.33;55.84
56600;BME280;51832;48.152;11.530;2023-03-01T04:34:24;95842.06;;;4.30;55.58
56600;BME280;51832;48.152;11.530;2023-03-01T04:39:26;95832.31;;;3.70;57.74
56600;BME280;51832;48.152;11.530;2023-03-01T04:44:27;95831.91;;;3.50;58.35
56600;BME280;51832;48.152;11.530;2023-03-01T04:49:27;95839.06;;;3.48;59.08
56600;BME280;51832;48.152;11.530;2023-03-01T04:54:29;95834.19;;;3.45;58.78
56600;BME280;51832;48.152;11.530;2023-03-01T04:59:29;95834.97;;;3.93;72.76
56600;BME280;51832;48.152;11.530;2023-03-01T05:04:30;95819.41;;;7.00;73.85
56600;BME280;51832;48.152;11.530;2023-03-01T05:09:30;95822.75;;;4.85;56.17
56600;BME280;51832;48.152;11.530;2023-03-01T05:14:31;95824.31;;;4.34;57.49
56600;BME280;51832;48.152;11.530;2023-03-01T05:19:31;95819.53;;;3.83;58.48
56600;BME280;51832;48.152;11.530;2023-03-01T05:24:34;95820.81;;;3.56;58.75
56600;BME280;51832;48.152;11.530;2023-03-01T05:29:35;95808.94;;;3.15;60.15
56600;BME280;51832;48.152;11.530;2023-03-01T05:34:35;95814.88;;;3.40;59.54
56600;BME280;51832;48.152;11.530;2023-03-01T05:39:36;95819.75;;;3.82;58.18
56600;BME280;51832;48.152;11.530;2023-03-01T05:44:37;95815.34;;;3.82;58.78
56600;BME280;51832;48.152;11.530;2023-03-01T05:49:38;95811.16;;;3.73;57.87
56600;BME280;51832;48.152;11.530;2023-03-01T05:54:38;95821.78;;;3.95;58.05
56600;BME280;51832;48.152;11.530;2023-03-01T05:59:39;95809.34;;;3.74;58.49
56600;BME280;51832;48.152;11.530;2023-03-01T06:04:39;95804.75;;;3.84;57.48
56600;BME280;51832;48.152;11.530;2023-03-01T06:09:40;95808.94;;;3.62;58.37
56600;BME280;51832;48.152;11.530;2023-03-01T06:14:40;95821.41;;;3.36;59.49
56600;BME280;51832;48.152;11.530;2023-03-01T06:19:40;95824.88;;;3.04;60.57
56600;BME280;51832;48.152;11.530;2023-03-01T06:24:41;95833.88;;;2.85;61.85
56600;BME280;51832;48.152;11.530;2023-03-01T06:29:41;95826.69;;;2.95;61.24
56600;BME280;51832;48.152;11.530;2023-03-01T06:34:42;95830.91;;;3.04;60.44
56600;BME280;51832;48.152;11.530;2023-03-01T06:39:42;95834.84;;;2.84;61.39
56600;BME280;51832;48.152;11.530;2023-03-01T06:44:44;95833.97;;;3.08;60.21
56600;BME280;51832;48.152;11.530;2023-03-01T06:49:44;95830.59;;;2.99;61.28
56600;BME280;51832;48.152;11.530;2023-03-01T06:54:45;95831.31;;;3.40;59.96
56600;BME280;51832;48.152;11.530;2023-03-01T06:59:46;95822.59;;;3.56;59.68
56600;BME280;51832;48.152;11.530;2023-03-01T07:04:49;95829.91;;;3.61;58.46
56600;BME280;51832;48.152;11.530;2023-03-01T07:09:49;95832.03;;;3.65;58.95
56600;BME280;51832;48.152;11.530;2023-03-01T07:14:50;95824.94;;;3.82;57.94
56600;BME280;51832;48.152;11.530;2023-03-01T07:19:50;95822.16;;;3.83;57.65
56600;BME280;51832;48.152;11.530;2023-03-01T07:24:50;95822.03;;;3.77;57.68
56600;BME280;51832;48.152;11.530;2023-03-01T07:29:51;95814.38;;;3.44;59.04
56600;BME280;51832;48.152;11.530;2023-03-01T07:34:51;95814.41;;;3.75;57.87
56600;BME280;51832;48.152;11.530;2023-03-01T07:39:52;95815.69;;;3.40;59.26
56600;BME280;51832;48.152;11.530;2023-03-01T07:44:52;95811.94;;;3.43;58.87
56600;BME280;51832;48.152;11.530;2023-03-01T07:49:52;95798.69;;;3.61;58.17
56600;BME280;51832;48.152;11.530;2023-03-01T07:54:53;95803.00;;;4.07;57.28
56600;BME280;51832;48.152;11.530;2023-03-01T07:59:53;95803.28;;;3.50;58.36
56600;BME280;51832;48.152;11.530;2023-03-01T08:04:54;95804.25;;;4.11;56.86
56600;BME280;51832;48.152;11.530;2023-03-01T08:09:54;95796.22;;;4.21;55.91
56600;BME280;51832;48.152;11.530;2023-03-01T08:14:54;95797.25;;;4.12;56.22
56600;BME280;51832;48.152;11.530;2023-03-01T08:19:55;95788.66;;;4.34;55.60
56600;BME280;51832;48.152;11.530;2023-03-01T08:24:55;95786.59;;;4.82;54.22
56600;BME280;51832;48.152;11.530;2023-03-01T08:29:56;95798.19;;;4.79;54.38
56600;BME280;51832;48.152;11.530;2023-03-01T08:34:56;95788.78;;;5.08;52.74
56600;BME280;51832;48.152;11.530;2023-03-01T08:39:57;95779.97;;;5.23;52.74
56600;BME280;51832;48.152;11.530;2023-03-01T08:44:57;95783.47;;;5.30;52.33
56600;BME280;51832;48.152;11.530;2023-03-01T08:49:57;95771.06;;;5.03;52.22
56600;BME280;51832;48.152;11.530;2023-03-01T08:54:58;95766.09;;;5.08;52.78
56600;BME280;51832;48.152;11.530;2023-03-01T08:59:58;95769.97;;;5.42;51.58
56600;BME280;51832;48.152;11.530;2023-03-01T09:04:59;95773.47;;;5.34;51.81
56600;BME280;51832;48.152;11.530;2023-03-01T09:09:59;95758.44;;;5.51;52.07
56600;BME280;51832;48.152;11.530;2023-03-01T09:14:59;95766.47;;;5.20;52.50
56600;BME280;51832;48.152;11.530;2023-03-01T09:20:00;95770.34;;;5.24;51.94
56600;BME280;51832;48.152;11.530;2023-03-01T09:25:00;95769.25;;;4.74;54.42
56600;BME280;51832;48.152;11.530;2023-03-01T09:30:01;95766.56;;;4.45;55.13
56600;BME280;51832;48.152;11.530;2023-03-01T09:35:02;95761.81;;;4.48;55.25
56600;BME280;51832;48.152;11.530;2023-03-01T09:40:08;95759.59;;;4.60;55.51
56600;BME280;51832;48.152;11.530;2023-03-01T09:45:37;95760.75;;;4.57;55.42
56600;BME280;51832;48.152;11.530;2023-03-01T09:50:42;95749.81;;;5.35;53.70
56600;BME280;51832;48.152;11.530;2023-03-01T09:56:03;95747.09;;;5.58;52.28
56600;BME280;51832;48.152;11.530;2023-03-01T10:01:45;95746.31;;;5.28;53.64
56600;BME280;51832;48.152;11.530;2023-03-01T10:11:56;95734.91;;;5.29;54.46
56600;BME280;51832;48.152;11.530;2023-03-01T10:17:01;95739.50;;;5.13;54.71
56600;BME280;51832;48.152;11.530;2023-03-01T10:22:29;95740.59;;;4.37;56.74
56600;BME280;51832;48.152;11.530;2023-03-01T10:27:47;95737.56;;;5.87;52.50
56600;BME280;51832;48.152;11.530;2023-03-01T10:32:53;95730.50;;;6.23;50.72
56600;BME280;51832;48.152;11.530;2023-03-01T10:42:58;95732.81;;;6.12;50.64
56600;BME280;51832;48.152;11.530;2023-03-01T10:48:15;95716.41;;;6.46;49.88
56600;BME280;51832;48.152;11.530;2023-03-01T10:58:26;95697.50;;;7.06;48.43
56600;BME280;51832;48.152;11.530;2023-03-01T11:03:35;95686.34;;;7.32;47.59
56600;BME280;51832;48.152;11.530;2023-03-01T11:13:52;95659.66;;;7.69;46.90
56600;BME280;51832;48.152;11.530;2023-03-01T11:19:19;95661.13;;;7.78;46.89
56600;BME280;51832;48.152;11.530;2023-03-01T11:24:19;95635.94;;;7.97;45.43
56600;BME280;51832;48.152;11.530;2023-03-01T11:29:40;95637.56;;;7.18;48.14
56600;BME280;51832;48.152;11.530;2023-03-01T11:35:32;95637.53;;;7.04;48.06
56600;BME280;51832;48.152;11.530;2023-03-01T11:40:26;95624.88;;;7.08;48.96
56600;BME280;51832;48.152;11.530;2023-03-01T11:45:37;95620.31;;;6.82;49.53
56600;BME280;51832;48.152;11.530;2023-03-01T11:50:46;95599.84;;;7.99;47.19
56600;BME280;51832;48.152;11.530;2023-03-01T12:22:35;95577.22;;;8.58;46.48
56600;BME280;51832;48.152;11.530;2023-03-01T12:33:17;95565.94;;;9.15;44.75
56600;BME280;51832;48.152;11.530;2023-03-01T12:43:41;95552.69;;;10.59;40.96
56600;BME280;51832;48.152;11.530;2023-03-01T12:48:57;95550.16;;;10.27;42.42
56600;BME280;51832;48.152;11.530;2023-03-01T12:54:11;95560.97;;;11.11;39.65
56600;BME280;51832;48.152;11.530;2023-03-01T12:59:32;95558.06;;;10.27;41.07
56600;BME280;51832;48.152;11.530;2023-03-01T13:14:53;95542.22;;;11.49;39.23
56600;BME280;51832;48.152;11.530;2023-03-01T13:19:58;95545.38;;;12.34;37.60
56600;BME280;51832;48.152;11.530;2023-03-01T13:25:12;95548.06;;;12.74;36.81
56600;BME280;51832;48.152;11.530;2023-03-01T13:35:44;95541.41;;;13.80;35.04
56600;BME280;51832;48.152;11.530;2023-03-01T13:45:51;95526.47;;;13.29;35.60
56600;BME280;51832;48.152;11.530;2023-03-01T13:51:03;95536.69;;;12.97;36.65
56600;BME280;51832;48.152;11.530;2023-03-01T13:56:15;95531.38;;;13.37;35.17
56600;BME280;51832;48.152;11.530;2023-03-01T14:01:22;95513.91;;;13.98;34.54
56600;BME280;51832;48.152;11.530;2023-03-01T14:06:29;95507.94;;;13.00;36.37
56600;BME280;51832;48.152;11.530;2023-03-01T14:27:29;95502.50;;;13.19;35.83
56600;BME280;51832;48.152;11.530;2023-03-01T14:32:31;95483.59;;;13.88;35.50
56600;BME280;51832;48.152;11.530;2023-03-01T14:37:34;95472.63;;;13.46;35.53
56600;BME280;51832;48.152;11.530;2023-03-01T14:42:35;95468.28;;;15.11;33.05
56600;BME280;51832;48.152;11.530;2023-03-01T14:47:36;95454.09;;;14.52;33.46
56600;BME280;51832;48.152;11.530;2023-03-01T14:52:41;95460.38;;;16.07;30.86
56600;BME280;51832;48.152;11.530;2023-03-01T14:57:43;95472.59;;;16.08;31.50
56600;BME280;51832;48.152;11.530;2023-03-01T15:02:46;95459.38;;;18.19;28.03
56600;BME280;51832;48.152;11.530;2023-03-01T15:07:48;95465.38;;;16.98;29.41
56600;BME280;51832;48.152;11.530;2023-03-01T15:12:49;95458.16;;;16.78;29.72
56600;BME280;51832;48.152;11.530;2023-03-01T15:17:55;95466.66;;;19.42;26.19
56600;BME280;51832;48.152;11.530;2023-03-01T15:22:57;95466.50;;;20.07;25.09
56600;BME280;51832;48.152;11.530;2023-03-01T15:27:59;95450.03;;;21.75;23.31
56600;BME280;51832;48.152;11.530;2023-03-01T15:38:50;95458.19;;;22.49;21.93
56600;BME280;51832;48.152;11.530;2023-03-01T15:43:51;95454.25;;;22.74;21.11
56600;BME280;51832;48.152;11.530;2023-03-01T15:49:01;95449.94;;;21.05;23.32
56600;BME280;51832;48.152;11.530;2023-03-01T15:54:06;95449.34;;;21.70;22.96
56600;BME280;51832;48.152;11.530;2023-03-01T15:59:09;95443.13;;;22.53;22.08
56600;BME280;51832;48.152;11.530;2023-03-01T16:04:15;95439.06;;;21.90;22.89
56600;BME280;51832;48.152;11.530;2023-03-01T16:09:24;95433.91;;;19.32;26.33
56600;BME280;51832;48.152;11.530;2023-03-01T16:14:24;95443.38;;;18.44;27.78
56600;BME280;51832;48.152;11.530;2023-03-01T16:19:25;95448.53;;;18.95;27.30
56600;BME280;51832;48.152;11.530;2023-03-01T16:24:25;95433.81;;;18.28;27.90
56600;BME280;51832;48.152;11.530;2023-03-01T16:29:26;95459.09;;;18.36;28.10
56600;BME280;51832;48.152;11.530;2023-03-01T16:34:26;95434.91;;;18.07;28.99
56600;BME280;51832;48.152;11.530;2023-03-01T16:39:27;95444.19;;;17.38;29.93
56600;BME280;51832;48.152;11.530;2023-03-01T16:44:27;95440.59;;;16.82;30.94
56600;BME280;51832;48.152;11.530;2023-03-01T16:49:27;95440.16;;;15.64;33.18
56600;BME280;51832;48.152;11.530;2023-03-01T16:54:28;95450.28;;;15.13;34.51
56600;BME280;51832;48.152;11.530;2023-03-01T16:59:28;95455.69;;;14.53;35.92
56600;BME280;51832;48.152;11.530;2023-03-01T17:04:29;95459.25;;;14.25;36.82
56600;BME280;51832;48.152;11.530;2023-03-01T17:09:29;95465.25;;;13.99;37.74
56600;BME280;51832;48.152;11.530;2023-03-01T17:14:30;95469.75;;;13.65;38.50
56600;BME280;51832;48.152;11.530;2023-03-01T17:19:30;95467.97;;;13.37;39.59
56600;BME280;51832;48.152;11.530;2023-03-01T17:24:33;95469.97;;;12.90;40.79
56600;BME280;51832;48.152;11.530;2023-03-01T17:29:34;95468.06;;;12.73;41.51
56600;BME280;51832;48.152;11.530;2023-03-01T17:34:35;95470.13;;;12.83;41.38
56600;BME280;51832;48.152;11.530;2023-03-01T17:39:36;95477.69;;;11.93;44.23
56600;BME280;51832;48.152;11.530;2023-03-01T17:44:37;95480.31;;;12.39;43.25
56600;BME280;51832;48.152;11.530;2023-03-01T17:49:37;95490.09;;;12.16;43.83
56600;BME280;51832;48.152;11.530;2023-03-01T17:54:38;95495.47;;;11.32;44.27
56600;BME280;51832;48.152;11.530;2023-03-01T17:59:39;95500.66;;;11.62;43.86
56600;BME280;51832;48.152;11.530;2023-03-01T18:04:39;95506.25;;;11.13;44.47
56600;BME280;51832;48.152;11.530;2023-03-01T18:09:40;95502.91;;;10.76;44.88
56600;BME280;51832;48.152;11.530;2023-03-01T18:14:40;95510.09;;;10.50;46.32
56600;BME280;51832;48.152;11.530;2023-03-01T18:19:41;95509.91;;;10.27;46.62
56600;BME280;51832;48.152;11.530;2023-03-01T18:24:42;95514.22;;;10.40;46.30
56600;BME280;51832;48.152;11.530;2023-03-01T18:29:42;95510.44;;;10.36;46.76
56600;BME280;51832;48.152;11.530;2023-03-01T18:34:43;95509.09;;;10.26;46.41
56600;BME280;51832;48.152;11.530;2023-03-01T18:39:44;95501.00;;;10.03;46.87
56600;BME280;51832;48.152;11.530;2023-03-01T18:44:48;95502.13;;;9.95;47.52
56600;BME280;51832;48.152;11.530;2023-03-01T18:49:48;95500.63;;;9.81;48.36
56600;BME280;51832;48.152;11.530;2023-03-01T18:54:49;95495.78;;;9.78;48.05
56600;BME280;51832;48.152;11.530;2023-03-01T18:59:49;95491.59;;;9.71;48.66
56600;BME280;51832;48.152;11.530;2023-03-01T19:04:50;95497.66;;;9.46;49.15
56600;BME280;51832;48.152;11.530;2023-03-01T19:09:51;95455.09;;;9.06;50.38
56600;BME280;51832;48.152;11.530;2023-03-01T19:14:51;95497.03;;;9.19;48.92
56600;BME280;51832;48.152;11.530;2023-03-01T19:19:51;95497.50;;;9.10;50.46
56600;BME280;51832;48.152;11.530;2023-03-01T19:24:52;95495.19;;;9.20;50.17
56600;BME280;51832;48.152;11.530;2023-03-01T19:29:53;95497.72;;;9.40;49.96
56600;BME280;51832;48.152;11.530;2023-03-01T19:34:53;95495.78;;;9.22;50.27
56600;BME280;51832;48.152;11.530;2023-03-01T19:39:53;95485.50;;;9.52;49.91
56600;BME280;51832;48.152;11.530;2023-03-01T19:44:54;95485.09;;;9.23;49.19
56600;BME280;51832;48.152;11.530;2023-03-01T19:49:54;95489.28;;;9.00;51.45
56600;BME280;51832;48.152;11.530;2023-03-01T19:54:55;95481.28;;;8.88;53.60
56600;BME280;51832;48.152;11.530;2023-03-01T19:59:55;95489.44;;;9.05;53.37
56600;BME280;51832;48.152;11.530;2023-03-01T20:04:56;95489.72;;;9.28;52.56
56600;BME280;51832;48.152;11.530;2023-03-01T20:09:56;95483.78;;;9.08;52.64
56600;BME280;51832;48.152;11.530;2023-03-01T20:14:56;95493.19;;;8.84;53.73
56600;BME280;51832;48.152;11.530;2023-03-01T20:19:57;95481.22;;;8.50;54.77
56600;BME280;51832;48.152;11.530;2023-03-01T20:24:58;95471.94;;;8.54;54.38
56600;BME280;51832;48.152;11.530;2023-03-01T20:29:58;95474.03;;;8.32;55.16
56600;BME280;51832;48.152;11.530;2023-03-01T20:34:58;95472.66;;;8.16;55.22
56600;BME280;51832;48.152;11.530;2023-03-01T20:39:59;95473.00;;;8.40;55.34
56600;BME280;51832;48.152;11.530;2023-03-01T20:44:59;95468.91;;;8.50;54.70
56600;BME280;51832;48.152;11.530;2023-03-01T20:50:00;95457.31;;;8.13;55.46
56600;BME280;51832;48.152;11.530;2023-03-01T20:55:01;95464.16;;;8.21;55.10
56600;BME280;51832;48.152;11.530;2023-03-01T21:00:03;95467.19;;;8.11;54.91
56600;BME280;51832;48.152;11.530;2023-03-01T21:05:04;95464.22;;;8.01;55.62
56600;BME280;51832;48.152;11.530;2023-03-01T21:10:05;95471.47;;;7.99;55.72
56600;BME280;51832;48.152;11.530;2023-03-01T21:15:06;95466.63;;;7.96;55.80
56600;BME280;51832;48.152;11.530;2023-03-01T21:20:07;95455.91;;;8.11;54.91
56600;BME280;51832;48.152;11.530;2023-03-01T21:25:08;95467.00;;;8.19;54.47
56600;BME280;51832;48.152;11.530;2023-03-01T21:30:09;95454.69;;;8.07;55.03
56600;BME280;51832;48.152;11.530;2023-03-01T21:35:09;95456.16;;;7.96;55.56
56600;BME280;51832;48.152;11.530;2023-03-01T21:40:10;95441.03;;;7.98;55.36
56600;BME280;51832;48.152;11.530;2023-03-01T21:45:11;95443.53;;;7.60;56.92
56600;BME280;51832;48.152;11.530;2023-03-01T21:50:11;95439.03;;;7.80;55.60
56600;BME280;51832;48.152;11.530;2023-03-01T21:55:11;95437.03;;;7.89;55.45
56600;BME280;51832;48.152;11.530;2023-03-01T22:00:13;95439.03;;;7.80;56.18
56600;BME280;51832;48.152;11.530;2023-03-01T22:05:14;95435.22;;;7.83;55.27
56600;BME280;51832;48.152;11.530;2023-03-01T22:10:15;95426.78;;;7.68;56.74
56600;BME280;51832;48.152;11.530;2023-03-01T22:15:15;95428.56;;;7.80;56.21
56600;BME280;51832;48.152;11.530;2023-03-01T22:20:16;95431.00;;;7.89;55.71
56600;BME280;51832;48.152;11.530;2023-03-01T22:25:16;95423.94;;;7.82;55.15
56600;BME280;51832;48.152;11.530;2023-03-01T22:30:17;95412.31;;;7.65;56.04
56600;BME280;51832;48.152;11.530;2023-03-01T22:35:18;95418.13;;;7.54;56.77
56600;BME280;51832;48.152;11.530;2023-03-01T22:40:18;95414.91;;;6.86;60.16
56600;BME280;51832;48.152;11.530;2023-03-01T22:45:19;95417.72;;;6.85;60.29
56600;BME280;51832;48.152;11.530;2023-03-01T22:50:19;95410.91;;;6.90;60.14
56600;BME280;51832;48.152;11.530;2023-03-01T22:55:20;95412.13;;;7.07;59.65
56600;BME280;51832;48.152;11.530;2023-03-01T23:00:21;95415.09;;;6.85;59.92
56600;BME280;51832;48.152;11.530;2023-03-01T23:05:22;95407.25;;;6.78;60.36
56600;BME280;51832;48.152;11.530;2023-03-01T23:10:22;95400.22;;;6.85;59.72
56600;BME280;51832;48.152;11.530;2023-03-01T23:15:23;95413.69;;;6.75;60.47
56600;BME280;51832;48.152;11.530;2023-03-01T23:20:23;95402.63;;;6.67;60.38
56600;BME280;51832;48.152;11.530;2023-03-01T23:25:23;95404.75;;;6.37;61.26
56600;BME280;51832;48.152;11.530;2023-03-01T23:30:24;95404.66;;;6.85;59.87
56600;BME280;51832;48.152;11.530;2023-03-01T23:35:25;95411.44;;;6.53;60.71
56600;BME280;51832;48.152;11.530;2023-03-01T23:40:26;95399.13;;;6.33;60.53
56600;BME280;51832;48.152;11.530;2023-03-01T23:45:26;95401.59;;;6.61;60.73
56600;BME280;51832;48.152;11.530;2023-03-01T23:50:26;95392.13;;;6.60;59.46
56600;BME280;51832;48.152;11.530;2023-03-01T23:55:28;95400.41;;;6.64;60.36
